Time;durP1;ratioP1;P1;durP2;ratioP2;P2;SDS_P1;SDS_P2;PMS_P1;PMS_P2;Temp;Humidity;BMP_temperature;BMP_pressure;BME280_temperature;BME280_humidity;BME280_pressure;Samples;Min_cycle;Max_cycle;Signal;HPM_P1;HPM_P2
2021/04/08 00:01:16;;;;;;;6.97;4.60;;;;;;;-1.04;87.81;96201.47;5010530;28;20065;-52
2021/04/08 00:03:43;;;;;;;8.68;4.35;;;;;;;-1.12;87.65;96197.44;5016480;28;20056;-52
2021/04/08 00:06:11;;;;;;;6.68;4.22;;;;;;;-1.01;86.60;96200.97;5032284;28;20049;-54
2021/04/08 00:08:38;;;;;;;7.80;4.57;;;;;;;-1.01;86.77;96196.50;5020786;28;20129;-50
2021/04/08 00:11:05;;;;;;;6.97;4.15;;;;;;;-0.99;86.33;96194.38;5014779;28;20056;-49
2021/04/08 00:13:33;;;;;;;9.85;4.50;;;;;;;-0.98;86.53;96195.94;5032202;28;20065;-54
2021/04/08 00:16:00;;;;;;;7.90;4.57;;;;;;;-1.02;85.80;96194.06;5031932;28;20410;-52
2021/04/08 00:18:27;;;;;;;6.57;3.80;;;;;;;-1.03;86.61;96192.47;5022618;28;20429;-52
2021/04/08 00:20:53;;;;;;;8.32;4.95;;;;;;;-1.10;86.61;96194.53;5030558;28;20054;-51
2021/04/08 00:23:20;;;;;;;6.78;4.50;;;;;;;-1.05;86.70;96192.72;5031844;28;20119;-53
2021/04/08 00:25:46;;;;;;;7.88;4.40;;;;;;;-1.07;86.79;96200.16;5028799;28;20049;-51
2021/04/08 00:28:13;;;;;;;6.18;3.95;;;;;;;-0.98;86.81;96200.47;5027101;28;20510;-50
2021/04/08 00:30:43;;;;;;;7.88;4.00;;;;;;;-1.01;85.85;96201.81;5011757;28;20046;-52
2021/04/08 00:33:10;;;;;;;6.65;4.25;;;;;;;-1.00;85.73;96197.28;5012085;28;20073;-53
2021/04/08 00:35:37;;;;;;;7.60;3.85;;;;;;;-1.02;85.71;96202.03;5024497;28;20052;-50
2021/04/08 00:38:04;;;;;;;9.52;3.95;;;;;;;-0.98;84.89;96187.19;5023795;28;20076;-50
2021/04/08 00:40:31;;;;;;;8.07;4.22;;;;;;;-1.04;85.39;96183.72;5010110;28;20073;-52
2021/04/08 00:42:58;;;;;;;6.68;4.03;;;;;;;-0.99;85.35;96188.25;5010634;28;20136;-50
2021/04/08 00:45:25;;;;;;;7.32;3.97;;;;;;;-1.10;85.00;96190.03;5011597;28;20507;-54
2021/04/08 00:47:51;;;;;;;4.90;3.20;;;;;;;-1.07;84.74;96180.72;5011091;28;20162;-51
2021/04/08 00:50:19;;;;;;;9.05;4.07;;;;;;;-0.99;84.81;96181.09;5025462;28;20048;-53
2021/04/08 00:52:58;;;;;;;8.95;3.58;;;;;;;-0.96;85.04;96187.75;5029939;28;20503;-52
2021/04/08 00:55:32;;;;;;;6.53;3.53;;;;;;;-0.99;83.80;96186.41;5010491;28;20552;-49
2021/04/08 00:58:02;;;;;;;5.65;3.78;;;;;;;-1.02;83.41;96175.47;5030662;28;20063;-52
2021/04/08 01:00:30;;;;;;;5.00;3.67;;;;;;;-0.92;84.11;96188.84;5030531;28;20086;-49
2021/04/08 01:02:57;;;;;;;5.75;3.65;;;;;;;-0.96;84.10;96182.44;5030283;28;20049;-50
2021/04/08 01:05:23;;;;;;;6.03;3.08;;;;;;;-0.82;82.01;96199.53;5026367;28;20483;-50
2021/04/08 01:07:50;;;;;;;5.10;3.42;;;;;;;-0.74;81.15;96208.94;5009295;28;20133;-51
2021/04/08 01:10:20;;;;;;;5.13;3.20;;;;;;;-0.88;82.09;96203.22;5010902;28;20077;-48
2021/04/08 01:12:47;;;;;;;6.70;3.70;;;;;;;-0.90;83.78;96200.03;5028572;28;20053;-50
2021/04/08 01:15:14;;;;;;;11.30;4.53;;;;;;;-1.09;86.73;96194.28;5023675;28;20050;-50
2021/04/08 01:18:04;;;;;;;10.98;4.40;;;;;;;-1.21;88.00;96191.75;5020438;28;20470;-54
2021/04/08 01:20:33;;;;;;;6.47;3.60;;;;;;;-1.29;86.53;96192.22;5020900;28;20392;-51
2021/04/08 01:23:38;;;;;;;6.53;3.72;;;;;;;-1.23;86.90;96190.44;5031381;28;20076;-52
2021/04/08 01:26:11;;;;;;;8.25;3.80;;;;;;;-1.09;85.57;96190.81;5003763;28;20077;-52
2021/04/08 01:28:41;;;;;;;6.38;3.28;;;;;;;-1.08;84.30;96187.09;5010973;28;20109;-54
2021/04/08 01:31:12;;;;;;;7.63;3.20;;;;;;;-0.95;82.70;96186.69;5027665;28;20123;-51
2021/04/08 01:33:54;;;;;;;6.53;3.08;;;;;;;-0.86;80.35;96182.53;5029702;28;20052;-50
2021/04/08 01:36:26;;;;;;;4.88;2.90;;;;;;;-0.84;81.21;96196.38;5025152;28;20056;-52
2021/04/08 01:38:59;;;;;;;4.78;2.88;;;;;;;-0.74;79.37;96198.31;5025618;28;20056;-52
2021/04/08 01:41:27;;;;;;;5.40;2.85;;;;;;;-0.71;78.78;96201.25;4993305;28;20057;-52
2021/04/08 01:43:56;;;;;;;7.35;2.72;;;;;;;-0.56;77.09;96202.41;5015651;28;20037;-55
2021/04/08 01:46:25;;;;;;;4.90;2.65;;;;;;;-0.55;78.07;96206.69;5025847;28;20582;-51
2021/04/08 01:48:54;;;;;;;8.10;4.65;;;;;;;-0.93;84.69;96205.84;5026180;28;20088;-51
2021/04/08 01:51:23;;;;;;;8.20;4.00;;;;;;;-1.11;86.32;96216.81;5021628;28;20398;-51
2021/04/08 01:53:54;;;;;;;8.20;3.78;;;;;;;-1.11;85.68;96204.34;5027286;28;20050;-52
2021/04/08 01:56:23;;;;;;;4.63;3.25;;;;;;;-1.09;85.27;96198.78;5011109;28;20061;-49
2021/04/08 01:58:51;;;;;;;5.60;3.50;;;;;;;-1.11;85.90;96216.81;5010886;28;20581;-51
2021/04/08 02:01:18;;;;;;;7.88;3.90;;;;;;;-0.95;82.60;96214.03;5019003;28;20041;-49
2021/04/08 02:03:49;;;;;;;4.97;3.05;;;;;;;-0.90;81.89;96202.69;5026642;28;20057;-53
2021/04/08 02:06:17;;;;;;;5.20;2.72;;;;;;;-0.87;81.69;96204.84;5018242;28;20050;-51
2021/04/08 02:08:49;;;;;;;6.90;3.00;;;;;;;-0.76;80.33;96217.13;5025651;28;20061;-50
2021/04/08 02:11:16;;;;;;;6.00;2.42;;;;;;;-0.72;78.82;96220.09;5017819;28;20049;-49
2021/04/08 02:13:47;;;;;;;5.82;2.65;;;;;;;-0.86;80.29;96222.38;5030621;28;20049;-51
2021/04/08 02:16:18;;;;;;;4.20;2.83;;;;;;;-0.73;79.82;96218.50;5030484;28;20053;-51
2021/04/08 02:18:47;;;;;;;8.60;2.92;;;;;;;-0.82;79.83;96214.69;5015444;28;20092;-55
2021/04/08 02:21:15;;;;;;;5.47;2.90;;;;;;;-0.73;79.56;96213.19;5029827;28;20053;-51
2021/04/08 02:23:44;;;;;;;6.28;2.85;;;;;;;-0.63;78.81;96213.25;5031233;28;20486;-53
2021/04/08 02:26:14;;;;;;;4.05;2.38;;;;;;;-0.72;78.77;96218.22;5033666;28;20061;-51
2021/04/08 02:28:43;;;;;;;5.25;2.90;;;;;;;-0.57;77.01;96208.78;5017583;28;20053;-57
2021/04/08 02:31:10;;;;;;;6.53;2.90;;;;;;;-0.67;77.79;96216.69;5031977;28;20099;-50
2021/04/08 02:33:37;;;;;;;4.10;2.75;;;;;;;-0.53;77.49;96218.66;5033903;28;20104;-53
2021/04/08 02:36:05;;;;;;;4.25;2.53;;;;;;;-0.45;76.95;96219.25;5015386;28;20054;-50
2021/04/08 02:38:34;;;;;;;4.93;2.53;;;;;;;-0.49;77.78;96230.41;5017455;28;20549;-49
2021/04/08 02:41:03;;;;;;;6.07;2.97;;;;;;;-0.38;75.66;96236.56;5033105;28;20132;-50
2021/04/08 02:43:30;;;;;;;4.82;2.70;;;;;;;-0.33;75.85;96239.25;5033399;28;20057;-50
2021/04/08 02:45:58;;;;;;;6.30;2.90;;;;;;;-0.73;80.54;96245.06;5031287;28;20053;-51
2021/04/08 02:48:25;;;;;;;5.82;2.67;;;;;;;-0.75;80.10;96248.00;5031217;28;20080;-50
2021/04/08 02:50:54;;;;;;;7.18;3.20;;;;;;;-0.81;81.15;96253.50;5032674;28;20054;-51
2021/04/08 02:53:36;;;;;;;3.83;2.65;;;;;;;-0.88;81.36;96250.22;5032452;28;20053;-50
2021/04/08 02:56:28;;;;;;;7.45;2.97;;;;;;;-1.14;84.27;96259.78;5009499;28;20056;-50
2021/04/08 02:59:02;;;;;;;6.75;3.75;;;;;;;-1.33;87.06;96260.16;5036772;28;20085;-51
2021/04/08 03:01:30;;;;;;;7.97;4.13;;;;;;;-1.36;88.92;96257.97;5032919;28;20053;-52
2021/04/08 03:03:59;;;;;;;6.00;3.90;;;;;;;-1.35;88.85;96261.44;5030074;28;20045;-54
2021/04/08 03:06:26;;;;;;;7.10;4.22;;;;;;;-1.38;90.09;96270.69;5032090;28;20119;-52
2021/04/08 03:08:57;;;;;;;12.45;4.13;;;;;;;-1.32;89.01;96268.91;5030838;28;20050;-51
2021/04/08 03:11:28;;;;;;;6.57;3.17;;;;;;;-1.47;88.91;96267.66;5032292;28;20427;-51
2021/04/08 03:14:05;;;;;;;7.70;4.57;;;;;;;-1.45;90.19;96275.38;5031980;28;20045;-55
2021/04/08 03:16:40;;;;;;;7.13;4.35;;;;;;;-1.55;90.52;96270.75;5030588;28;20462;-51
2021/04/08 03:19:12;;;;;;;7.00;4.18;;;;;;;-1.43;90.96;96278.56;5022226;28;20502;-53
2021/04/08 03:21:40;;;;;;;6.55;3.80;;;;;;;-1.29;89.48;96279.81;5032070;28;20056;-51
2021/04/08 03:24:10;;;;;;;9.15;5.28;;;;;;;-1.30;89.78;96288.84;5032904;28;20053;-51
2021/04/08 03:26:38;;;;;;;6.88;4.47;;;;;;;-1.26;90.02;96284.66;5019354;28;20092;-55
2021/04/08 03:29:07;;;;;;;7.95;4.78;;;;;;;-1.21;89.49;96281.22;5013074;28;20662;-54
2021/04/08 03:31:34;;;;;;;6.88;4.43;;;;;;;-1.29;89.13;96279.81;5022855;28;20053;-51
2021/04/08 03:34:02;;;;;;;10.68;5.05;;;;;;;-1.38;89.88;96283.97;5027333;28;20416;-54
2021/04/08 03:36:28;;;;;;;7.57;4.60;;;;;;;-1.31;90.81;96284.56;5027889;28;20132;-49
2021/04/08 03:38:55;;;;;;;6.93;4.70;;;;;;;-1.40;91.55;96283.41;5023909;28;20057;-52
2021/04/08 03:41:22;;;;;;;7.18;4.43;;;;;;;-1.33;91.02;96294.66;5030853;28;20046;-51
2021/04/08 03:43:50;;;;;;;10.02;4.90;;;;;;;-1.39;90.89;96292.97;5030232;28;20042;-48
2021/04/08 03:46:18;;;;;;;8.18;5.15;;;;;;;-1.38;91.07;96291.94;5023087;28;20096;-51
2021/04/08 03:48:48;;;;;;;8.68;4.68;;;;;;;-1.39;90.74;96290.31;5012451;28;20066;-48
2021/04/08 03:51:18;;;;;;;13.20;5.40;;;;;;;-1.34;90.25;96285.06;5012190;28;20481;-50
2021/04/08 03:53:45;;;;;;;11.48;5.72;;;;;;;-1.39;89.98;96285.03;5012488;28;20557;-49
2021/04/08 03:56:15;;;;;;;9.82;5.65;;;;;;;-1.44;90.22;96285.75;5013062;28;20103;-50
2021/04/08 03:58:43;;;;;;;7.93;5.60;;;;;;;-1.31;89.36;96289.09;5027544;28;20104;-52
2021/04/08 04:01:10;;;;;;;9.95;5.57;;;;;;;-1.25;88.97;96291.53;5010638;28;20503;-50
2021/04/08 04:03:37;;;;;;;8.82;4.97;;;;;;;-1.27;89.72;96293.66;5012077;28;20053;-53
2021/04/08 04:06:08;;;;;;;11.15;5.10;;;;;;;-1.24;89.42;96301.09;5028329;28;20076;-50
2021/04/08 04:08:35;;;;;;;10.05;5.30;;;;;;;-1.23;88.74;96294.75;5021387;28;20066;-48
2021/04/08 04:11:03;;;;;;;10.77;5.05;;;;;;;-1.13;87.82;96291.44;5024370;23;20137;-48
2021/04/08 04:13:31;;;;;;;7.63;4.82;;;;;;;-1.16;87.10;96294.56;5010966;28;20342;-49
2021/04/08 04:15:59;;;;;;;7.50;4.47;;;;;;;-1.18;87.62;96300.13;5013837;28;20133;-44
2021/04/08 04:18:25;;;;;;;7.50;4.22;;;;;;;-1.12;86.66;96297.53;5009807;28;20057;-51
2021/04/08 04:20:52;;;;;;;8.90;4.68;;;;;;;-1.04;86.82;96303.22;5009973;28;20435;-47
2021/04/08 04:23:21;;;;;;;7.72;4.28;;;;;;;-1.05;86.51;96300.78;5011506;28;20050;-43
2021/04/08 04:25:47;;;;;;;8.43;5.03;;;;;;;-0.94;86.34;96313.16;4999607;28;20058;-50
2021/04/08 04:28:14;;;;;;;12.38;4.85;;;;;;;-0.88;85.86;96312.13;5006412;28;20591;-45
2021/04/08 04:30:40;;;;;;;8.88;4.78;;;;;;;-0.84;86.11;96313.25;5010010;28;20391;-43
2021/04/08 04:33:07;;;;;;;5.95;3.72;;;;;;;-0.83;83.09;96317.50;5010786;28;20092;-43
2021/04/08 04:35:33;;;;;;;9.10;4.28;;;;;;;-0.80;82.63;96321.50;5013157;28;20091;-45
2021/04/08 04:38:00;;;;;;;6.55;3.63;;;;;;;-0.76;81.56;96314.66;5024704;28;20053;-44
2021/04/08 04:40:26;;;;;;;8.45;4.05;;;;;;;-0.76;82.14;96314.66;5010501;28;20054;-44
2021/04/08 04:42:53;;;;;;;7.88;3.90;;;;;;;-0.77;81.90;96324.47;5010491;28;20392;-44
2021/04/08 04:45:19;;;;;;;9.27;4.20;;;;;;;-0.67;81.76;96322.97;5009557;28;20188;-46
2021/04/08 04:47:46;;;;;;;5.72;3.28;;;;;;;-0.70;80.74;96324.28;5013094;28;20458;-46
2021/04/08 04:50:13;;;;;;;7.93;4.38;;;;;;;-0.66;80.45;96328.03;5018900;28;20119;-43
2021/04/08 04:52:40;;;;;;;7.47;4.32;;;;;;;-0.63;80.77;96329.38;5008604;28;20046;-47
2021/04/08 04:55:08;;;;;;;7.18;3.95;;;;;;;-0.56;80.63;96335.28;5007952;28;20050;-48
2021/04/08 04:57:35;;;;;;;7.47;3.63;;;;;;;-0.56;81.23;96324.66;5013992;28;20572;-51
2021/04/08 05:00:04;;;;;;;7.75;3.95;;;;;;;-0.47;79.12;96331.13;5014460;28;20056;-43
2021/04/08 05:02:30;;;;;;;6.70;3.80;;;;;;;-0.54;79.89;96338.50;5011651;28;20053;-50
2021/04/08 05:04:57;;;;;;;6.65;4.05;;;;;;;-0.43;78.90;96334.09;5011501;28;20484;-47
2021/04/08 05:07:23;;;;;;;6.93;3.20;;;;;;;-0.41;78.69;96332.78;4990761;28;20098;-46
2021/04/08 05:09:52;;;;;;;6.43;2.97;;;;;;;-0.44;78.62;96337.81;4990683;28;20113;-48
2021/04/08 05:12:18;;;;;;;7.65;3.35;;;;;;;-0.46;78.67;96340.69;4993126;28;20216;-52
2021/04/08 05:14:45;;;;;;;5.72;3.03;;;;;;;-0.43;78.40;96350.03;5011186;28;20058;-47
2021/04/08 05:17:11;;;;;;;7.25;3.42;;;;;;;-0.29;77.37;96351.25;5009699;28;20057;-48
2021/04/08 05:19:38;;;;;;;7.03;3.17;;;;;;;-0.27;77.06;96355.22;5011667;28;20057;-47
2021/04/08 05:22:04;;;;;;;6.88;3.58;;;;;;;-0.27;77.56;96355.22;5010429;28;20057;-48
2021/04/08 05:24:31;;;;;;;4.97;3.30;;;;;;;-0.20;76.86;96359.53;5015051;28;20080;-50
2021/04/08 05:26:57;;;;;;;5.35;3.15;;;;;;;-0.18;77.92;96358.25;5031050;28;20064;-44
2021/04/08 05:29:25;;;;;;;5.60;3.08;;;;;;;-0.21;76.88;96363.28;5026190;28;20058;-43
2021/04/08 05:31:51;;;;;;;6.82;3.60;;;;;;;-0.06;75.23;96364.19;5009105;28;20072;-48
2021/04/08 05:34:18;;;;;;;5.72;3.53;;;;;;;-0.07;76.12;96367.09;5012712;28;20092;-44
2021/04/08 05:36:44;;;;;;;5.75;3.60;;;;;;;-0.04;75.14;96378.03;5009397;28;20076;-48
2021/04/08 05:39:11;;;;;;;6.82;3.60;;;;;;;-0.05;75.54;96367.66;5010140;28;20054;-48
2021/04/08 05:41:37;;;;;;;7.55;3.63;;;;;;;0.02;74.96;96367.44;5030450;28;20089;-48
2021/04/08 05:44:04;;;;;;;7.47;3.70;;;;;;;0.02;74.97;96373.56;5007497;28;20140;-49
2021/04/08 05:46:31;;;;;;;6.07;4.18;;;;;;;0.04;75.06;96370.66;5017387;28;20092;-44
2021/04/08 05:48:57;;;;;;;6.38;4.25;;;;;;;0.07;74.99;96375.47;5025942;28;20054;-44
2021/04/08 05:51:24;;;;;;;8.60;4.97;;;;;;;0.13;74.85;96383.25;5007403;28;20120;-45
2021/04/08 05:53:50;;;;;;;8.18;5.07;;;;;;;-0.03;76.30;96381.53;5008400;28;20050;-50
2021/04/08 05:56:17;;;;;;;9.57;4.88;;;;;;;0.12;75.04;96388.81;5005894;28;20053;-50
2021/04/08 05:58:43;;;;;;;8.30;5.10;;;;;;;0.14;75.33;96395.47;4992565;28;20133;-53
2021/04/08 06:01:10;;;;;;;7.22;4.30;;;;;;;0.20;74.83;96402.44;5006761;28;20042;-49
2021/04/08 06:03:37;;;;;;;9.75;4.55;;;;;;;0.16;74.54;96400.53;5027400;28;20050;-49
2021/04/08 06:06:04;;;;;;;7.72;4.90;;;;;;;0.17;74.84;96405.63;5009282;28;20051;-50
2021/04/08 06:08:30;;;;;;;8.27;5.18;;;;;;;0.23;75.39;96407.28;5004430;28;20057;-49
2021/04/08 06:10:56;;;;;;;9.68;4.70;;;;;;;0.29;74.33;96407.28;5013606;28;20115;-50
2021/04/08 06:13:23;;;;;;;7.50;4.63;;;;;;;0.37;74.00;96401.50;5013423;28;20046;-46
2021/04/08 06:15:51;;;;;;;7.13;4.65;;;;;;;0.36;74.86;96406.03;5016884;28;20073;-48
2021/04/08 06:18:18;;;;;;;6.75;3.92;;;;;;;0.34;73.51;96410.81;5014392;28;20458;-48
2021/04/08 06:20:45;;;;;;;9.48;4.60;;;;;;;0.35;73.30;96424.91;5014059;28;20054;-50
2021/04/08 06:23:12;;;;;;;7.45;4.40;;;;;;;0.39;73.72;96429.47;5014267;28;20488;-48
2021/04/08 06:25:38;;;;;;;6.95;3.90;;;;;;;0.49;73.61;96423.44;5014586;28;20062;-44
2021/04/08 06:28:05;;;;;;;8.52;4.70;;;;;;;0.47;73.29;96429.00;5004604;28;20654;-43
2021/04/08 06:30:32;;;;;;;10.40;4.72;;;;;;;0.60;74.01;96429.63;5029317;28;20054;-51
2021/04/08 06:32:58;;;;;;;7.25;4.03;;;;;;;0.56;73.70;96433.84;5014142;28;20053;-43
2021/04/08 06:35:25;;;;;;;6.93;4.32;;;;;;;0.64;73.29;96436.81;5015785;28;20053;-50
2021/04/08 06:37:51;;;;;;;7.70;4.07;;;;;;;0.86;71.95;96435.91;5039520;28;20049;-48
2021/04/08 06:40:20;;;;;;;6.47;3.72;;;;;;;0.76;71.40;96441.19;5034029;28;20057;-50
2021/04/08 06:42:48;;;;;;;6.72;4.22;;;;;;;0.70;73.08;96446.47;5033836;28;20041;-46
2021/04/08 06:45:15;;;;;;;5.75;3.88;;;;;;;0.79;72.63;96454.78;5034004;28;20045;-46
2021/04/08 06:48:10;;;;;;;8.38;4.30;;;;;;;0.90;71.30;96440.44;5026276;28;20061;-47
2021/04/08 06:50:40;;;;;;;6.72;3.60;;;;;;;1.00;71.98;96447.69;5012842;28;20446;-52
2021/04/08 06:53:07;;;;;;;8.63;4.38;;;;;;;0.96;71.58;96449.28;5014081;28;20046;-44
2021/04/08 06:55:34;;;;;;;5.97;4.10;;;;;;;0.88;71.81;96449.78;5013943;28;20419;-44
2021/04/08 06:58:05;;;;;;;6.50;3.92;;;;;;;0.83;70.63;96452.41;5013630;28;20046;-47
2021/04/08 07:00:34;;;;;;;7.60;4.05;;;;;;;0.74;71.82;96456.59;5013651;28;20058;-47
2021/04/08 07:03:03;;;;;;;5.68;3.88;;;;;;;0.96;71.77;96451.94;5013567;28;20052;-48
2021/04/08 07:05:29;;;;;;;8.55;4.35;;;;;;;0.91;71.24;96455.41;5013684;28;20077;-43
2021/04/08 07:07:56;;;;;;;6.50;3.90;;;;;;;0.91;71.42;96451.91;5013563;28;20112;-45
2021/04/08 07:10:23;;;;;;;6.10;4.28;;;;;;;0.95;71.69;96454.88;5015012;28;20112;-45
2021/04/08 07:12:55;;;;;;;7.53;4.45;;;;;;;0.52;73.60;96462.84;5008533;28;20061;-46
2021/04/08 07:15:23;;;;;;;7.03;4.40;;;;;;;0.61;73.73;96455.97;5011938;28;20054;-48
2021/04/08 07:17:50;;;;;;;7.38;5.32;;;;;;;0.72;73.04;96466.72;5013386;28;20050;-48
2021/04/08 07:20:17;;;;;;;11.57;4.80;;;;;;;0.92;72.12;96466.84;5013155;28;20073;-48
2021/04/08 07:22:43;;;;;;;7.55;4.30;;;;;;;0.49;73.62;96476.69;5017150;28;20081;-47
2021/04/08 07:25:18;;;;;;;7.85;4.72;;;;;;;0.51;73.99;96471.88;5011592;28;20054;-47
2021/04/08 07:27:45;;;;;;;11.43;5.28;;;;;;;0.51;73.60;96477.22;5022546;28;20064;-49
2021/04/08 07:30:13;;;;;;;5.32;3.53;;;;;;;0.32;73.62;96482.09;5031920;28;20107;-47
2021/04/08 07:32:41;;;;;;;13.68;5.47;;;;;;;0.29;76.27;96487.13;5024558;28;20058;-48
2021/04/08 07:35:19;;;;;;;12.50;6.78;;;;;;;0.32;78.50;96494.63;5013000;28;20515;-50
2021/04/08 07:37:58;;;;;;;11.38;6.45;;;;;;;0.00;79.97;96490.09;5013924;28;20057;-48
2021/04/08 07:40:27;;;;;;;8.95;6.50;;;;;;;-0.10;81.27;96498.75;5010241;28;20053;-44
2021/04/08 07:42:54;;;;;;;13.45;7.13;;;;;;;-0.21;82.45;96502.34;5012944;28;20133;-52
2021/04/08 07:45:29;;;;;;;15.38;8.05;;;;;;;-0.36;83.64;96504.81;5012644;28;20455;-49
2021/04/08 07:48:01;;;;;;;13.93;8.85;;;;;;;-0.07;84.08;96500.91;5012248;28;20069;-49
2021/04/08 07:50:29;;;;;;;13.30;8.57;;;;;;;0.20;83.33;96508.91;5011205;28;20053;-45
2021/04/08 07:52:57;;;;;;;12.93;8.32;;;;;;;0.17;81.44;96512.06;5010701;28;20046;-46
2021/04/08 07:55:30;;;;;;;11.05;8.02;;;;;;;-0.17;82.13;96518.59;5012009;28;20057;-45
2021/04/08 07:58:14;;;;;;;11.95;8.73;;;;;;;0.22;82.51;96511.28;5003843;28;20042;-46
2021/04/08 08:00:48;;;;;;;12.88;9.20;;;;;;;0.54;80.98;96519.31;5011766;28;20142;-44
2021/04/08 08:03:31;;;;;;;11.77;8.65;;;;;;;0.49;81.14;96519.28;5009875;28;20434;-49
2021/04/08 08:06:00;;;;;;;11.98;6.68;;;;;;;0.21;80.01;96521.13;5005400;28;20418;-44
2021/04/08 08:08:42;;;;;;;16.17;9.02;;;;;;;0.55;81.19;96520.91;5011668;28;20054;-43
2021/04/08 08:11:14;;;;;;;17.02;13.00;;;;;;;0.94;79.55;96528.66;5010352;28;20466;-45
2021/04/08 08:13:51;;;;;;;13.00;8.07;;;;;;;1.05;78.30;96529.53;5012377;28;20049;-43
2021/04/08 08:16:37;;;;;;;11.13;8.35;;;;;;;0.48;79.71;96541.59;5012210;28;20410;-47
2021/04/08 08:19:04;;;;;;;13.65;8.23;;;;;;;0.49;79.56;96543.25;5019761;28;20084;-43
2021/04/08 08:21:38;;;;;;;12.68;8.68;;;;;;;0.37;80.79;96545.25;5010122;28;20045;-51
2021/04/08 08:24:07;;;;;;;14.18;8.45;;;;;;;0.35;80.43;96539.34;5010549;28;20104;-48
2021/04/08 08:26:39;;;;;;;17.77;8.73;;;;;;;0.45;81.18;96540.25;5004624;28;20085;-47
2021/04/08 08:29:06;;;;;;;14.52;10.18;;;;;;;0.72;81.99;96544.75;5011605;28;20054;-48
2021/04/08 08:31:36;;;;;;;14.13;9.35;;;;;;;0.21;81.80;96560.25;5011231;28;20511;-48
2021/04/08 08:34:25;;;;;;;12.35;9.25;;;;;;;0.14;83.61;96551.69;5011774;28;20034;-46
2021/04/08 08:36:54;;;;;;;13.43;9.18;;;;;;;0.21;82.78;96562.91;5011815;28;20101;-45
2021/04/08 08:39:24;;;;;;;12.82;9.48;;;;;;;0.29;84.13;96559.00;5011130;28;20049;-44
2021/04/08 08:41:52;;;;;;;16.08;9.45;;;;;;;0.51;83.11;96561.59;5008575;28;20050;-46
2021/04/08 08:44:19;;;;;;;13.52;9.57;;;;;;;-0.04;84.61;96566.09;4992648;28;20054;-47
2021/04/08 08:46:49;;;;;;;15.77;10.07;;;;;;;0.27;87.20;96555.78;4995952;28;20049;-44
2021/04/08 08:49:29;;;;;;;13.65;9.30;;;;;;;0.52;86.01;96557.88;5012958;28;20077;-46
2021/04/08 08:51:59;;;;;;;14.73;9.27;;;;;;;0.17;85.14;96562.63;5008600;28;20057;-47
2021/04/08 08:54:28;;;;;;;15.88;10.38;;;;;;;0.24;84.90;96565.09;5002791;28;20081;-49
2021/04/08 08:56:57;;;;;;;15.77;9.80;;;;;;;0.51;83.69;96570.38;5009702;28;20490;-46
2021/04/08 08:59:24;;;;;;;13.20;8.80;;;;;;;0.35;82.63;96565.97;5012147;28;20061;-45
2021/04/08 09:01:52;;;;;;;14.48;9.13;;;;;;;0.67;81.84;96569.47;5007634;28;20050;-44
2021/04/08 09:04:39;;;;;;;9.88;7.43;;;;;;;1.03;80.49;96575.09;5005595;28;20073;-50
2021/04/08 09:07:12;;;;;;;12.48;7.43;;;;;;;1.58;77.83;96573.03;5032204;28;20107;-49
2021/04/08 09:09:46;;;;;;;11.55;7.45;;;;;;;1.46;78.46;96569.75;5011998;28;20489;-49
2021/04/08 09:12:32;;;;;;;;;;;;;;;1.26;75.22;96565.13;5011171;28;20455;-42
2021/04/08 09:14:59;;;;;;;11.57;6.45;;;;;;;1.43;74.95;96564.94;5011996;28;20022;-48
2021/04/08 09:17:46;;;;;;;10.05;7.00;;;;;;;1.96;75.41;96561.22;5009600;28;20066;-46
2021/04/08 09:20:18;;;;;;;9.27;6.50;;;;;;;2.01;72.21;96560.41;5012169;28;20053;-45
2021/04/08 09:23:09;;;;;;;9.73;6.57;;;;;;;2.04;69.50;96562.56;5004133;28;20073;-46
2021/04/08 09:25:48;;;;;;;10.30;6.15;;;;;;;2.15;69.93;96563.41;5006239;28;20077;-53
2021/04/08 09:28:16;;;;;;;8.48;4.68;;;;;;;1.83;68.00;96559.03;5014238;28;20073;-47
2021/04/08 09:33:12;;;;;;;11.75;5.95;;;;;;;1.86;70.11;96561.16;4995490;28;20172;-44
2021/04/08 09:35:40;;;;;;;7.85;6.05;;;;;;;1.98;67.88;96561.75;5014195;28;20418;-53
2021/04/08 09:38:16;;;;;;;9.27;6.20;;;;;;;2.28;68.35;96555.69;5008436;28;20423;-49
2021/04/08 09:40:46;;;;;;;8.15;5.55;;;;;;;2.27;65.09;96550.59;5015425;28;20054;-50
2021/04/08 09:43:14;;;;;;;8.10;5.43;;;;;;;1.78;66.95;96559.78;5015497;28;20057;-51
2021/04/08 09:45:47;;;;;;;8.90;5.70;;;;;;;1.65;67.53;96557.59;5013572;28;20050;-50
2021/04/08 09:48:21;;;;;;;6.93;4.72;;;;;;;1.67;65.25;96552.03;5014884;28;20057;-53
2021/04/08 09:50:53;;;;;;;5.63;3.83;;;;;;;1.64;64.77;96543.47;5014111;28;20050;-46
2021/04/08 09:53:50;;;;;;;7.90;4.50;;;;;;;1.84;65.26;96564.09;5014489;28;20065;-48
2021/04/08 09:56:16;;;;;;;9.75;6.45;;;;;;;2.20;63.34;96555.41;5030905;28;20424;-50
2021/04/08 09:58:56;;;;;;;6.88;3.80;;;;;;;1.54;63.79;96558.63;5006937;28;20051;-47
2021/04/08 10:01:22;;;;;;;9.50;5.47;;;;;;;1.98;65.31;96553.75;5011636;28;20046;-45
2021/04/08 10:03:49;;;;;;;7.00;5.00;;;;;;;2.57;62.08;96555.22;5026240;28;20053;-48
2021/04/08 10:06:22;;;;;;;7.28;4.78;;;;;;;2.87;60.73;96551.75;5015234;28;20421;-43
2021/04/08 10:08:49;;;;;;;7.60;4.13;;;;;;;2.08;59.34;96553.78;5015250;28;20064;-43
2021/04/08 10:11:29;;;;;;;6.80;4.38;;;;;;;2.72;58.79;96551.75;5028470;23;20107;-49
2021/04/08 10:14:20;;;;;;;8.60;4.68;;;;;;;2.89;61.54;96551.47;5036534;28;20084;-47
2021/04/08 10:16:59;;;;;;;8.00;4.70;;;;;;;2.66;60.42;96553.59;5034035;28;20067;-46
2021/04/08 10:19:34;;;;;;;9.55;5.57;;;;;;;2.67;64.56;96559.78;5029179;28;20049;-49
2021/04/08 10:22:01;;;;;;;11.88;6.25;;;;;;;2.31;66.42;96555.16;5032311;28;20076;-50
2021/04/08 10:24:36;;;;;;;9.65;6.22;;;;;;;2.49;64.96;96559.19;5032549;28;20123;-49
2021/04/08 10:27:22;;;;;;;8.93;6.55;;;;;;;2.10;65.85;96548.97;5025307;28;20136;-46
2021/04/08 10:29:49;;;;;;;12.20;7.22;;;;;;;2.16;66.59;96557.00;5023466;28;20045;-48
2021/04/08 10:32:38;;;;;;;12.32;6.38;;;;;;;2.34;67.38;96551.97;5032549;28;20056;-49
2021/04/08 10:35:18;;;;;;;9.82;6.88;;;;;;;2.04;68.88;96554.56;5017495;28;20070;-51
2021/04/08 10:37:44;;;;;;;10.10;6.88;;;;;;;2.23;68.52;96547.66;5022767;28;20490;-51
2021/04/08 10:40:11;;;;;;;10.48;6.72;;;;;;;1.89;67.61;96555.31;5029775;28;20142;-52
2021/04/08 10:42:37;;;;;;;8.73;6.88;;;;;;;2.20;68.34;96544.72;5032362;28;20060;-49
2021/04/08 10:45:08;;;;;;;9.60;6.85;;;;;;;2.24;66.23;96537.78;5032523;28;20430;-49
2021/04/08 10:47:37;;;;;;;11.50;5.95;;;;;;;2.12;65.94;96550.59;5031754;28;20061;-48
2021/04/08 10:50:05;;;;;;;9.55;6.72;;;;;;;2.33;67.00;96549.56;5032483;28;20132;-51
2021/04/08 10:52:37;;;;;;;8.48;5.53;;;;;;;1.94;64.86;96544.63;5032035;28;20054;-48
2021/04/08 10:55:04;;;;;;;9.55;5.70;;;;;;;2.74;65.83;96544.28;5033037;28;20132;-49
2021/04/08 10:57:31;;;;;;;9.00;5.65;;;;;;;2.46;64.19;96546.38;5020723;28;20064;-49
2021/04/08 10:59:59;;;;;;;10.65;6.40;;;;;;;2.33;63.16;96547.69;5012410;28;20053;-48
2021/04/08 11:02:34;;;;;;;7.30;5.57;;;;;;;2.65;65.62;96551.22;5031549;28;20581;-46
2021/04/08 11:05:08;;;;;;;8.52;5.90;;;;;;;2.69;64.49;96546.94;5015388;28;20061;-48
2021/04/08 11:07:40;;;;;;;12.55;7.32;;;;;;;2.91;65.23;96560.03;5030229;28;20052;-48
2021/04/08 11:10:14;;;;;;;9.60;5.68;;;;;;;2.57;63.11;96550.66;5011838;28;20061;-47
2021/04/08 11:12:41;;;;;;;10.60;6.40;;;;;;;2.75;63.76;96553.88;5027747;28;20057;-49
2021/04/08 11:15:11;;;;;;;9.60;5.80;;;;;;;2.44;63.48;96551.19;5027699;28;20099;-48
2021/04/08 11:17:45;;;;;;;9.50;6.05;;;;;;;2.58;64.12;96548.78;5024008;28;20053;-47
2021/04/08 11:20:14;;;;;;;9.20;5.55;;;;;;;1.99;64.83;96558.03;5016559;28;20049;-48
2021/04/08 11:22:46;;;;;;;9.35;7.00;;;;;;;1.97;67.74;96552.13;5018581;28;20050;-48
2021/04/08 11:25:15;;;;;;;11.77;7.07;;;;;;;2.01;68.32;96542.53;5035189;28;20060;-49
2021/04/08 11:27:45;;;;;;;11.20;5.90;;;;;;;1.48;69.44;96565.78;5033046;28;20046;-47
2021/04/08 11:30:40;;;;;;;9.60;6.72;;;;;;;2.19;69.22;96543.91;5025665;28;20056;-46
2021/04/08 11:33:19;;;;;;;9.60;6.00;;;;;;;2.55;66.64;96547.47;5012476;28;20104;-48
2021/04/08 11:35:46;;;;;;;10.15;6.20;;;;;;;2.78;65.46;96545.34;5011681;28;20054;-49
2021/04/08 11:38:20;;;;;;;10.73;7.03;;;;;;;3.28;65.72;96543.69;5011253;28;20609;-48
2021/04/08 11:41:02;;;;;;;9.15;5.70;;;;;;;3.40;64.36;96538.06;5012181;28;20046;-45
2021/04/08 11:43:41;;;;;;;11.18;5.93;;;;;;;3.46;62.09;96535.09;5027588;28;20057;-48
2021/04/08 11:46:24;;;;;;;12.73;7.15;;;;;;;3.71;61.09;96533.41;5031815;28;20167;-46
2021/04/08 11:48:52;;;;;;;11.23;6.18;;;;;;;3.27;62.81;96536.72;5026331;28;20064;-51
2021/04/08 11:51:22;;;;;;;11.52;7.32;;;;;;;3.56;62.43;96530.78;5030455;28;20116;-52
2021/04/08 11:53:50;;;;;;;7.65;5.65;;;;;;;3.93;59.15;96525.00;5031373;28;20045;-50